createdAt,value
2019-02-26T00:01:32.533Z,1.10
2019-02-26T00:04:00.541Z,0.53
2019-02-26T00:06:30.220Z,0.30
2019-02-26T00:09:01.157Z,0.60
2019-02-26T00:11:30.766Z,0.60
2019-02-26T00:13:59.002Z,0.60
2019-02-26T00:16:27.333Z,0.67
2019-02-26T00:18:56.270Z,0.50
2019-02-26T00:21:26.406Z,0.70
2019-02-26T00:23:55.157Z,0.93
2019-02-26T00:26:23.515Z,0.60
2019-02-26T00:28:51.576Z,0.57
2019-02-26T00:31:21.424Z,0.67
2019-02-26T00:33:49.517Z,0.53
2019-02-26T00:36:17.613Z,0.70
2019-02-26T00:38:45.673Z,0.50
2019-02-26T00:41:13.741Z,0.77
2019-02-26T00:43:41.720Z,0.63
2019-02-26T00:46:10.371Z,0.63
2019-02-26T00:48:40.596Z,0.40
2019-02-26T00:51:08.531Z,0.50
2019-02-26T00:53:36.563Z,0.70
2019-02-26T00:56:05.722Z,0.47
2019-02-26T00:58:37.084Z,0.80
2019-02-26T01:01:08.224Z,0.90
2019-02-26T01:03:34.381Z,0.70
2019-02-26T01:06:04.232Z,0.67
2019-02-26T01:08:32.472Z,0.77
2019-02-26T01:11:02.112Z,0.50
2019-02-26T01:13:32.184Z,0.67
2019-02-26T01:16:01.368Z,0.63
2019-02-26T01:18:29.652Z,0.60
2019-02-26T01:20:59.699Z,0.87
2019-02-26T01:23:28.965Z,0.90
2019-02-26T01:25:57.465Z,0.50
2019-02-26T01:28:27.078Z,0.50
2019-02-26T01:30:56.201Z,0.70
2019-02-26T01:33:27.786Z,0.60
2019-02-26T01:35:56.165Z,0.53
2019-02-26T01:38:25.174Z,0.50
2019-02-26T01:40:54.249Z,0.77
2019-02-26T01:43:23.193Z,0.67
2019-02-26T01:45:53.113Z,0.40
2019-02-26T01:48:21.235Z,0.40
2019-02-26T01:50:52.021Z,0.90
2019-02-26T01:53:21.434Z,0.53
2019-02-26T01:55:50.562Z,0.50
2019-02-26T01:58:18.669Z,0.90
2019-02-26T02:00:46.877Z,0.50
2019-02-26T02:03:15.547Z,0.67
2019-02-26T02:05:45.674Z,0.53
2019-02-26T02:08:15.471Z,0.60
2019-02-26T02:10:43.715Z,0.50
2019-02-26T02:13:11.717Z,0.40
2019-02-26T02:15:40.499Z,0.80
2019-02-26T02:18:09.541Z,0.50
2019-02-26T02:20:37.582Z,0.50
2019-02-26T02:23:07.112Z,0.70
2019-02-26T02:25:36.207Z,0.50
2019-02-26T02:28:05.325Z,0.60
2019-02-26T02:30:35.618Z,0.60
2019-02-26T02:33:04.471Z,0.60
2019-02-26T02:35:32.630Z,0.57
2019-02-26T02:38:02.792Z,0.50
2019-02-26T02:40:30.547Z,0.77
2019-02-26T02:43:03.998Z,0.50
2019-02-26T02:45:28.589Z,0.50
2019-02-26T02:48:00.424Z,0.50
2019-02-26T02:50:26.624Z,0.50
2019-02-26T02:52:56.866Z,0.73
2019-02-26T02:55:24.961Z,0.47
2019-02-26T02:57:55.104Z,0.50
2019-02-26T03:00:25.786Z,0.60
2019-02-26T03:02:53.806Z,0.57
2019-02-26T03:05:22.586Z,0.57
2019-02-26T03:07:53.309Z,0.50
2019-02-26T03:10:20.702Z,0.83
2019-02-26T03:12:53.834Z,0.43
2019-02-26T03:15:18.745Z,0.57
2019-02-26T03:17:47.003Z,0.43
2019-02-26T03:20:15.215Z,0.60
2019-02-26T03:22:46.727Z,0.70
2019-02-26T03:25:16.555Z,0.70
2019-02-26T03:27:44.085Z,0.47
2019-02-26T03:30:20.700Z,0.73
2019-02-26T03:32:47.146Z,0.60
2019-02-26T03:35:16.661Z,0.80
2019-02-26T03:37:45.471Z,0.63
2019-02-26T03:40:13.572Z,0.50
2019-02-26T03:42:43.559Z,0.80
2019-02-26T03:45:12.717Z,0.70
2019-02-26T03:47:44.010Z,0.60
2019-02-26T03:50:13.341Z,0.40
2019-02-26T03:52:41.505Z,0.43
2019-02-26T03:55:12.138Z,0.83
2019-02-26T03:57:43.609Z,0.57
2019-02-26T04:00:11.355Z,0.50
2019-02-26T04:02:43.292Z,0.50
2019-02-26T04:05:11.293Z,0.40
2019-02-26T04:07:39.505Z,0.70
2019-02-26T04:10:08.306Z,0.50
2019-02-26T04:12:41.955Z,0.70
2019-02-26T04:15:08.154Z,0.67
2019-02-26T04:17:36.830Z,0.70
2019-02-26T04:20:07.104Z,0.60
2019-02-26T04:22:35.766Z,0.40
2019-02-26T04:25:16.422Z,0.50
2019-02-26T04:28:27.430Z,0.50
2019-02-26T04:31:26.011Z,0.50
2019-02-26T04:34:27.874Z,0.60
2019-02-26T04:37:39.706Z,0.70
2019-02-26T04:40:28.365Z,0.40
2019-02-26T04:43:33.508Z,0.33
2019-02-26T04:46:46.671Z,0.67
2019-02-26T04:49:14.928Z,0.57
2019-02-26T04:51:45.150Z,0.57
2019-02-26T04:54:17.548Z,0.43
2019-02-26T04:56:45.200Z,0.53
2019-02-26T04:59:15.044Z,0.40
2019-02-26T05:01:44.643Z,0.60
2019-02-26T05:04:12.910Z,0.63
2019-02-26T05:06:41.035Z,0.67
2019-02-26T05:09:10.634Z,0.50
2019-02-26T05:11:40.704Z,0.90
2019-02-26T05:14:09.720Z,0.60
2019-02-26T05:16:40.355Z,0.60
2019-02-26T05:19:10.390Z,0.70
2019-02-26T05:21:38.571Z,0.90
2019-02-26T05:24:06.666Z,0.43
2019-02-26T05:26:34.720Z,0.60
2019-02-26T05:29:06.124Z,0.60
2019-02-26T05:31:35.822Z,0.53
2019-02-26T05:34:04.337Z,0.80
2019-02-26T05:36:34.334Z,0.70
2019-02-26T05:39:02.448Z,0.67
2019-02-26T05:41:30.335Z,0.80
2019-02-26T05:44:00.970Z,0.70
2019-02-26T05:46:29.494Z,0.57
2019-02-26T05:48:57.622Z,0.90
2019-02-26T05:51:27.461Z,0.80
2019-02-26T05:53:55.865Z,1.20
2019-02-26T05:56:23.800Z,0.60
2019-02-26T05:58:51.653Z,0.57
2019-02-26T06:01:21.871Z,0.70
2019-02-26T06:03:51.750Z,0.63
2019-02-26T06:06:19.533Z,0.70
2019-02-26T06:08:47.565Z,0.50
2019-02-26T06:11:17.087Z,0.87
2019-02-26T06:13:45.241Z,0.70
2019-02-26T06:16:13.256Z,0.90
2019-02-26T06:18:43.844Z,0.67
2019-02-26T06:21:13.111Z,0.80
2019-02-26T06:23:43.182Z,0.70
2019-02-26T06:26:14.843Z,0.60
2019-02-26T06:28:43.476Z,0.90
2019-02-26T06:31:12.175Z,0.90
2019-02-26T06:33:43.119Z,1.27
2019-02-26T06:36:11.227Z,0.97
2019-02-26T06:38:39.408Z,1.00
2019-02-26T06:41:07.541Z,1.13
2019-02-26T06:43:39.667Z,1.10
2019-02-26T06:46:09.162Z,0.80
2019-02-26T06:48:35.459Z,0.70
2019-02-26T06:51:04.647Z,0.80
2019-02-26T06:53:33.459Z,0.80
2019-02-26T06:56:01.500Z,1.00
2019-02-26T06:58:29.542Z,0.60
2019-02-26T07:00:58.597Z,0.80
2019-02-26T07:03:26.505Z,1.00
2019-02-26T07:05:54.470Z,0.90
2019-02-26T07:08:24.186Z,0.90
2019-02-26T07:10:52.690Z,1.07
2019-02-26T07:13:20.777Z,1.20
2019-02-26T07:15:48.805Z,1.40
2019-02-26T07:18:19.042Z,1.30
2019-02-26T07:20:49.667Z,1.40
2019-02-26T07:23:16.745Z,0.90
2019-02-26T07:25:44.777Z,1.40
2019-02-26T07:28:12.802Z,1.07
2019-02-26T07:30:44.124Z,1.20
2019-02-26T07:33:12.261Z,0.93
2019-02-26T07:35:40.780Z,1.13
2019-02-26T07:38:08.844Z,0.90
2019-02-26T07:40:38.653Z,0.90
2019-02-26T07:43:09.108Z,0.80
2019-02-26T07:45:36.697Z,1.17
2019-02-26T07:48:04.868Z,1.50
2019-02-26T07:50:38.253Z,1.47
2019-02-26T07:53:05.604Z,0.93
2019-02-26T07:55:35.343Z,1.20
2019-02-26T07:58:06.144Z,1.40
2019-02-26T08:00:36.988Z,1.37
2019-02-26T08:03:04.693Z,1.80
2019-02-26T08:05:32.753Z,1.50
2019-02-26T08:08:00.780Z,1.50
2019-02-26T08:10:28.876Z,1.10
2019-02-26T08:12:59.206Z,1.60
2019-02-26T08:15:27.871Z,1.60
2019-02-26T08:17:58.480Z,1.30
2019-02-26T08:20:27.904Z,1.17
2019-02-26T08:22:56.858Z,1.33
2019-02-26T08:25:26.198Z,1.30
2019-02-26T08:27:56.403Z,1.30
2019-02-26T08:30:26.073Z,1.30
2019-02-26T08:32:56.127Z,1.50
2019-02-26T08:35:24.020Z,1.30
2019-02-26T08:37:52.004Z,1.47
2019-02-26T08:40:20.141Z,1.90
2019-02-26T08:42:48.215Z,1.20
2019-02-26T08:45:20.095Z,1.43
2019-02-26T08:47:47.807Z,1.60
2019-02-26T08:50:16.207Z,1.40
2019-02-26T08:52:46.794Z,1.57
2019-02-26T08:55:16.190Z,1.40
2019-02-26T08:57:44.295Z,1.57
2019-02-26T09:00:14.660Z,1.20
2019-02-26T09:02:43.712Z,1.20
2019-02-26T09:05:13.784Z,1.30
2019-02-26T09:07:43.318Z,1.50
2019-02-26T09:10:13.147Z,1.10
2019-02-26T09:12:44.134Z,1.47
2019-02-26T09:15:13.148Z,1.67
2019-02-26T09:17:42.115Z,1.60
2019-02-26T09:20:14.565Z,1.90
2019-02-26T09:22:45.723Z,2.17
2019-02-26T09:25:13.171Z,1.77
2019-02-26T09:27:42.996Z,1.90
2019-02-26T09:30:14.035Z,1.50
2019-02-26T09:32:44.835Z,1.97
2019-02-26T09:35:13.694Z,1.53
2019-02-26T09:37:42.818Z,1.60
2019-02-26T09:40:13.142Z,1.53
2019-02-26T09:42:41.309Z,1.23
2019-02-26T09:45:12.038Z,1.60
2019-02-26T09:47:39.948Z,1.90
2019-02-26T09:50:10.442Z,1.87
2019-02-26T09:52:38.896Z,1.67
2019-02-26T09:55:10.615Z,2.03
2019-02-26T09:57:38.631Z,1.70
2019-02-26T10:00:10.668Z,2.17
2019-02-26T10:02:40.050Z,2.60
2019-02-26T10:05:11.161Z,2.83
2019-02-26T10:07:38.782Z,2.20
2019-02-26T10:10:11.459Z,2.10
2019-02-26T10:12:39.426Z,1.60
2019-02-26T10:15:08.232Z,1.63
2019-02-26T10:17:38.072Z,1.80
2019-02-26T10:20:09.494Z,1.40
2019-02-26T10:22:38.521Z,1.30
2019-02-26T10:25:08.094Z,1.80
2019-02-26T10:27:38.303Z,1.60
2019-02-26T10:30:10.623Z,1.60
2019-02-26T10:32:38.097Z,1.67
2019-02-26T10:35:09.682Z,1.30
2019-02-26T10:37:43.626Z,1.53
2019-02-26T10:40:12.541Z,1.20
2019-02-26T10:42:41.820Z,1.33
2019-02-26T10:45:09.920Z,1.67
2019-02-26T10:47:38.100Z,1.40
2019-02-26T10:50:10.132Z,1.60
2019-02-26T10:52:38.585Z,1.20
2019-02-26T10:55:06.789Z,2.13
2019-02-26T10:57:36.146Z,1.10
2019-02-26T11:00:10.408Z,1.70
2019-02-26T11:02:40.593Z,1.63
2019-02-26T11:05:10.678Z,1.70
2019-02-26T11:07:40.064Z,1.33
2019-02-26T11:10:08.320Z,1.87
2019-02-26T11:12:36.555Z,2.10
2019-02-26T11:15:06.745Z,1.80
2019-02-26T11:17:34.900Z,2.20
2019-02-26T11:20:04.489Z,2.10
2019-02-26T11:22:33.501Z,1.80
2019-02-26T11:25:01.597Z,1.63
2019-02-26T11:27:29.712Z,1.73
2019-02-26T11:29:59.495Z,1.60
2019-02-26T11:32:29.749Z,1.33
2019-02-26T11:34:58.015Z,1.60
2019-02-26T11:37:29.404Z,1.70
2019-02-26T11:39:58.261Z,1.33
2019-02-26T11:42:28.744Z,1.10
2019-02-26T11:44:57.226Z,1.23
2019-02-26T11:47:26.402Z,2.03
2019-02-26T11:49:54.619Z,1.33
2019-02-26T11:52:22.804Z,1.60
2019-02-26T11:54:50.724Z,1.50
2019-02-26T11:57:18.830Z,1.37
2019-02-26T11:59:46.860Z,1.50
2019-02-26T12:02:24.789Z,1.53
2019-02-26T12:04:45.096Z,1.70
2019-02-26T12:07:13.167Z,1.60
2019-02-26T12:09:43.187Z,1.40
2019-02-26T12:12:11.655Z,1.40
2019-02-26T12:14:42.687Z,1.90
2019-02-26T12:17:09.520Z,1.43
2019-02-26T12:19:37.465Z,1.20
2019-02-26T12:22:06.035Z,1.70
2019-02-26T12:24:36.120Z,1.60
2019-02-26T12:27:04.288Z,1.77
2019-02-26T12:29:32.244Z,1.93
2019-02-26T12:32:01.195Z,1.60
2019-02-26T12:34:30.204Z,2.03
2019-02-26T12:37:02.054Z,1.90
2019-02-26T12:39:31.199Z,1.90
2019-02-26T12:41:58.091Z,1.70
2019-02-26T12:44:28.787Z,1.87
2019-02-26T12:46:56.718Z,1.77
2019-02-26T12:49:26.037Z,1.47
2019-02-26T12:51:56.788Z,1.70
2019-02-26T12:54:24.239Z,2.03
2019-02-26T12:56:54.768Z,1.60
2019-02-26T12:59:22.296Z,1.70
2019-02-26T13:01:51.958Z,1.50
2019-02-26T13:04:22.883Z,1.70
2019-02-26T13:06:52.028Z,1.50
2019-02-26T13:09:19.612Z,1.50
2019-02-26T13:12:00.680Z,1.60
2019-02-26T13:14:17.445Z,1.30
2019-02-26T13:16:46.317Z,1.70
2019-02-26T13:19:21.389Z,1.77
2019-02-26T13:21:45.305Z,1.40
2019-02-26T13:24:17.146Z,1.70
2019-02-26T13:26:47.388Z,1.60
2019-02-26T13:29:12.770Z,1.17
2019-02-26T13:31:42.573Z,1.40
2019-02-26T13:34:13.968Z,1.10
2019-02-26T13:36:43.672Z,1.27
2019-02-26T13:39:10.228Z,1.70
2019-02-26T13:41:38.995Z,1.23
2019-02-26T13:44:07.168Z,1.30
2019-02-26T13:46:35.233Z,1.63
2019-02-26T13:49:03.661Z,1.20
2019-02-26T13:51:32.056Z,1.40
2019-02-26T13:53:59.820Z,1.27
2019-02-26T13:56:27.912Z,1.27
2019-02-26T13:58:55.968Z,1.50
2019-02-26T14:01:24.015Z,1.30
2019-02-26T14:03:51.897Z,1.23
2019-02-26T14:06:19.853Z,1.20
2019-02-26T14:08:47.969Z,1.10
2019-02-26T14:11:16.016Z,1.30
2019-02-26T14:13:44.097Z,1.50
2019-02-26T14:16:12.176Z,1.20
2019-02-26T14:18:40.353Z,1.30
2019-02-26T14:21:08.345Z,1.43
2019-02-26T14:23:36.397Z,1.60
2019-02-26T14:26:04.557Z,1.27
2019-02-26T14:28:32.577Z,1.27
2019-02-26T14:31:00.600Z,1.43
2019-02-26T14:33:28.647Z,2.10
2019-02-26T14:35:56.764Z,2.20
2019-02-26T14:38:24.713Z,2.00
2019-02-26T14:40:52.975Z,1.83
2019-02-26T14:43:21.105Z,1.80
2019-02-26T14:45:49.384Z,1.50
2019-02-26T14:48:17.404Z,1.50
2019-02-26T14:50:45.564Z,1.67
2019-02-26T14:53:13.636Z,1.53
2019-02-26T14:55:41.707Z,2.00
2019-02-26T14:58:09.744Z,1.70
2019-02-26T15:00:38.364Z,1.50
2019-02-26T15:03:06.648Z,1.80
2019-02-26T15:05:34.888Z,1.70
2019-02-26T15:08:02.930Z,1.87
2019-02-26T15:10:30.980Z,1.83
2019-02-26T15:12:59.049Z,1.57
2019-02-26T15:15:27.237Z,2.53
2019-02-26T15:17:55.627Z,1.70
2019-02-26T15:20:24.224Z,2.17
2019-02-26T15:22:52.152Z,1.70
2019-02-26T15:25:21.082Z,1.50
2019-02-26T15:27:49.049Z,1.83
2019-02-26T15:30:17.472Z,2.33
2019-02-26T15:32:45.632Z,1.60
2019-02-26T15:35:14.028Z,1.50
2019-02-26T15:37:42.672Z,1.97
2019-02-26T15:40:12.057Z,1.40
2019-02-26T15:42:41.603Z,1.43
2019-02-26T15:45:23.747Z,1.30
2019-02-26T15:47:52.084Z,1.20
2019-02-26T15:50:20.148Z,1.27
2019-02-26T15:52:48.093Z,1.33
2019-02-26T15:55:22.280Z,1.30
2019-02-26T15:57:50.197Z,1.80
2019-02-26T16:00:25.360Z,1.70
2019-02-26T16:02:53.431Z,1.30
2019-02-26T16:05:26.555Z,1.50
2019-02-26T16:07:54.448Z,1.20
2019-02-26T16:10:22.792Z,1.20
2019-02-26T16:12:52.413Z,1.23
2019-02-26T16:15:20.693Z,1.60
2019-02-26T16:17:48.722Z,1.03
2019-02-26T16:20:17.977Z,1.13
2019-02-26T16:22:46.133Z,1.10
2019-02-26T16:25:14.198Z,1.20
2019-02-26T16:27:42.233Z,1.30
2019-02-26T16:30:15.987Z,1.30
2019-02-26T16:32:44.044Z,1.33
2019-02-26T16:35:12.287Z,1.13
2019-02-26T16:37:41.573Z,1.40
2019-02-26T16:40:10.647Z,1.40
2019-02-26T16:42:39.188Z,1.90
2019-02-26T16:45:10.753Z,2.67
2019-02-26T16:47:39.104Z,3.07
2019-02-26T16:50:13.063Z,3.57
2019-02-26T16:52:39.236Z,3.10
2019-02-26T16:55:08.539Z,2.77
2019-02-26T16:57:36.616Z,3.07
2019-02-26T17:00:05.720Z,3.20
2019-02-26T17:02:33.773Z,2.80
2019-02-26T17:05:01.796Z,2.27
2019-02-26T17:07:30.012Z,2.50
2019-02-26T17:09:58.157Z,3.30
2019-02-26T17:12:26.927Z,4.43
2019-02-26T17:14:56.496Z,4.57
2019-02-26T17:17:24.520Z,5.60
2019-02-26T17:19:52.588Z,5.93
2019-02-26T17:22:20.750Z,5.70
2019-02-26T17:24:49.071Z,6.03
2019-02-26T17:27:17.119Z,5.83
2019-02-26T17:29:45.193Z,6.00
2019-02-26T17:32:13.244Z,5.60
2019-02-26T17:34:41.282Z,5.17
2019-02-26T17:37:09.542Z,5.40
2019-02-26T17:39:38.074Z,4.97
2019-02-26T17:42:06.044Z,4.77
2019-02-26T17:44:33.987Z,4.93
2019-02-26T17:47:01.952Z,4.90
2019-02-26T17:49:30.071Z,4.63
2019-02-26T17:51:58.419Z,4.40
2019-02-26T17:54:26.492Z,4.17
2019-02-26T17:56:54.552Z,4.20
2019-02-26T17:59:22.585Z,4.73
2019-02-26T18:01:50.771Z,4.17
2019-02-26T18:04:22.727Z,5.07
2019-02-26T18:06:48.848Z,4.07
2019-02-26T18:09:16.796Z,4.17
2019-02-26T18:11:44.863Z,3.97
2019-02-26T18:14:12.917Z,4.33
2019-02-26T18:16:41.673Z,3.50
2019-02-26T18:19:12.428Z,3.80
2019-02-26T18:21:43.402Z,3.83
2019-02-26T18:24:09.424Z,3.57
2019-02-26T18:26:37.558Z,3.43
2019-02-26T18:29:05.592Z,3.47
2019-02-26T18:31:33.663Z,4.20
2019-02-26T18:34:01.703Z,3.17
2019-02-26T18:36:29.845Z,3.30
2019-02-26T18:38:57.916Z,3.60
2019-02-26T18:41:26.021Z,3.30
2019-02-26T18:44:03.681Z,3.50
2019-02-26T18:46:33.736Z,4.17
2019-02-26T18:49:02.122Z,4.37
2019-02-26T18:51:30.216Z,4.17
2019-02-26T18:53:58.356Z,4.70
2019-02-26T18:56:26.432Z,4.13
2019-02-26T18:58:54.397Z,4.13
2019-02-26T19:01:22.469Z,4.70
2019-02-26T19:03:50.609Z,4.43
2019-02-26T19:06:18.647Z,4.93
2019-02-26T19:08:46.722Z,4.30
2019-02-26T19:11:16.720Z,4.60
2019-02-26T19:13:44.668Z,3.90
2019-02-26T19:16:12.735Z,3.93
2019-02-26T19:18:40.788Z,4.50
2019-02-26T19:21:08.929Z,4.53
2019-02-26T19:23:36.992Z,4.23
2019-02-26T19:26:05.054Z,5.20
2019-02-26T19:28:33.084Z,4.97
2019-02-26T19:31:01.120Z,4.30
2019-02-26T19:33:29.272Z,5.30
2019-02-26T19:35:57.299Z,5.90
2019-02-26T19:38:27.533Z,6.83
2019-02-26T19:40:56.096Z,6.80
2019-02-26T19:43:25.966Z,7.07
2019-02-26T19:45:54.276Z,7.20
2019-02-26T19:48:22.348Z,7.40
2019-02-26T19:50:50.387Z,7.10
2019-02-26T19:53:18.466Z,7.30
2019-02-26T19:55:49.677Z,7.60
2019-02-26T19:58:17.143Z,6.97
2019-02-26T20:00:45.394Z,6.90
2019-02-26T20:03:13.598Z,6.53
2019-02-26T20:05:45.963Z,6.33
2019-02-26T20:08:11.791Z,6.30
2019-02-26T20:10:39.859Z,5.87
2019-02-26T20:13:12.452Z,5.27
2019-02-26T20:15:37.748Z,4.83
2019-02-26T20:18:05.616Z,5.03
2019-02-26T20:20:40.492Z,5.33
2019-02-26T20:23:06.006Z,4.97
2019-02-26T20:25:33.411Z,5.03
2019-02-26T20:28:05.375Z,4.90
2019-02-26T20:30:31.460Z,4.10
2019-02-26T20:33:01.558Z,3.73
2019-02-26T20:35:29.293Z,3.83
2019-02-26T20:37:58.826Z,4.50
2019-02-26T20:40:27.403Z,4.77
2019-02-26T20:42:55.442Z,4.30
2019-02-26T20:45:23.645Z,4.37
2019-02-26T20:47:51.646Z,4.00
2019-02-26T20:50:21.275Z,4.17
2019-02-26T20:52:50.581Z,4.50
2019-02-26T20:55:19.874Z,3.63
2019-02-26T20:57:48.169Z,3.83
2019-02-26T21:00:17.320Z,3.77
2019-02-26T21:02:45.705Z,3.87
2019-02-26T21:05:14.982Z,3.63
2019-02-26T21:07:43.214Z,4.33
2019-02-26T21:10:15.106Z,7.10
2019-02-26T21:12:41.753Z,6.67
2019-02-26T21:15:13.864Z,5.53
2019-02-26T21:17:41.874Z,5.07
2019-02-26T21:20:10.458Z,4.60
2019-02-26T21:22:38.464Z,5.30
2019-02-26T21:25:08.516Z,6.43
2019-02-26T21:27:38.181Z,6.30
2019-02-26T21:30:11.899Z,4.87
2019-02-26T21:32:38.035Z,5.80
2019-02-26T21:35:06.264Z,5.13
2019-02-26T21:37:34.505Z,5.00
2019-02-26T21:40:07.208Z,4.53
2019-02-26T21:42:35.240Z,3.53
2019-02-26T21:45:03.802Z,3.67
2019-02-26T21:47:31.757Z,3.60
2019-02-26T21:49:59.852Z,3.70
2019-02-26T21:52:27.916Z,4.10
2019-02-26T21:54:58.198Z,3.10
2019-02-26T21:57:25.898Z,2.90
2019-02-26T21:59:54.818Z,2.17
2019-02-26T22:02:23.271Z,2.67
2019-02-26T22:04:51.306Z,2.70
2019-02-26T22:07:19.851Z,2.23
2019-02-26T22:09:47.999Z,2.07
2019-02-26T22:12:17.247Z,2.10
2019-02-26T22:14:46.699Z,2.23
2019-02-26T22:17:14.940Z,2.30
2019-02-26T22:19:42.923Z,1.73
2019-02-26T22:22:11.212Z,2.70
2019-02-26T22:24:40.583Z,1.90
2019-02-26T22:27:10.160Z,1.87
2019-02-26T22:29:38.515Z,2.10
2019-02-26T22:32:06.756Z,2.03
2019-02-26T22:34:34.896Z,1.50
2019-02-26T22:37:07.107Z,2.03
2019-02-26T22:39:34.101Z,1.67
2019-02-26T22:42:02.260Z,1.50
2019-02-26T22:44:31.616Z,2.00
2019-02-26T22:46:59.571Z,1.40
2019-02-26T22:49:27.658Z,1.67
2019-02-26T22:51:58.445Z,1.57
2019-02-26T22:54:26.792Z,1.30
2019-02-26T22:56:56.910Z,1.30
2019-02-26T22:59:24.822Z,1.27
2019-02-26T23:01:54.512Z,1.40
2019-02-26T23:04:22.602Z,1.30
2019-02-26T23:06:50.715Z,1.33
2019-02-26T23:09:22.977Z,1.87
2019-02-26T23:11:51.178Z,1.30
2019-02-26T23:14:19.773Z,1.60
2019-02-26T23:16:51.680Z,1.20
2019-02-26T23:19:19.323Z,1.20
2019-02-26T23:21:49.953Z,1.40
2019-02-26T23:24:20.162Z,1.40
2019-02-26T23:26:48.392Z,1.20
2019-02-26T23:29:17.500Z,1.30
2019-02-26T23:31:45.510Z,1.20
2019-02-26T23:34:13.823Z,1.40
2019-02-26T23:36:41.933Z,1.47
2019-02-26T23:39:13.042Z,1.40
2019-02-26T23:41:41.406Z,1.50
2019-02-26T23:44:11.418Z,1.07
2019-02-26T23:46:39.621Z,1.27
2019-02-26T23:49:08.720Z,1.00
2019-02-26T23:51:36.704Z,0.80
2019-02-26T23:54:07.330Z,1.43
2019-02-26T23:56:35.042Z,1.20
2019-02-26T23:59:04.126Z,1.17
